sensor_id;sensor_type;location;lat;lon;timestamp;P1;durP1;ratioP1;P2;durP2;ratioP2
83862;SDS011;73888;50.844;-0.132;2024-01-30T00:01:02;11.13;;;3.97;;
83862;SDS011;73888;50.844;-0.132;2024-01-30T00:03:28;10.30;;;3.95;;
83862;SDS011;73888;50.844;-0.132;2024-01-30T00:05:56;10.77;;;4.77;;
83862;SDS011;73888;50.844;-0.132;2024-01-30T00:08:26;9.55;;;3.80;;
83862;SDS011;73888;50.844;-0.132;2024-01-30T00:10:52;9.73;;;3.75;;
83862;SDS011;73888;50.844;-0.132;2024-01-30T00:13:21;9.20;;;3.60;;
83862;SDS011;73888;50.844;-0.132;2024-01-30T00:15:47;8.02;;;2.95;;
83862;SDS011;73888;50.844;-0.132;2024-01-30T00:18:17;10.87;;;3.93;;
83862;SDS011;73888;50.844;-0.132;2024-01-30T00:20:44;14.00;;;4.50;;
83862;SDS011;73888;50.844;-0.132;2024-01-30T00:23:10;13.50;;;5.78;;
83862;SDS011;73888;50.844;-0.132;2024-01-30T00:25:40;13.30;;;4.90;;
83862;SDS011;73888;50.844;-0.132;2024-01-30T00:28:07;8.43;;;3.35;;
83862;SDS011;73888;50.844;-0.132;2024-01-30T00:30:33;9.50;;;3.73;;
83862;SDS011;73888;50.844;-0.132;2024-01-30T00:32:59;9.55;;;3.30;;
83862;SDS011;73888;50.844;-0.132;2024-01-30T00:35:25;6.35;;;3.25;;
83862;SDS011;73888;50.844;-0.132;2024-01-30T00:37:52;6.70;;;3.28;;
83862;SDS011;73888;50.844;-0.132;2024-01-30T00:40:21;12.27;;;3.70;;
83862;SDS011;73888;50.844;-0.132;2024-01-30T00:42:48;9.30;;;3.97;;
83862;SDS011;73888;50.844;-0.132;2024-01-30T00:45:15;8.25;;;3.22;;
83862;SDS011;73888;50.844;-0.132;2024-01-30T00:47:44;7.22;;;3.08;;
83862;SDS011;73888;50.844;-0.132;2024-01-30T00:50:10;8.23;;;3.08;;
83862;SDS011;73888;50.844;-0.132;2024-01-30T00:52:38;9.93;;;3.70;;
83862;SDS011;73888;50.844;-0.132;2024-01-30T00:55:06;11.73;;;3.55;;
83862;SDS011;73888;50.844;-0.132;2024-01-30T00:57:32;8.63;;;3.08;;
83862;SDS011;73888;50.844;-0.132;2024-01-30T00:59:59;11.70;;;3.65;;
83862;SDS011;73888;50.844;-0.132;2024-01-30T01:02:26;14.32;;;3.80;;
83862;SDS011;73888;50.844;-0.132;2024-01-30T01:04:52;9.33;;;2.97;;
83862;SDS011;73888;50.844;-0.132;2024-01-30T01:07:22;11.30;;;2.88;;
83862;SDS011;73888;50.844;-0.132;2024-01-30T01:09:49;11.35;;;4.30;;
83862;SDS011;73888;50.844;-0.132;2024-01-30T01:12:15;10.85;;;4.05;;
83862;SDS011;73888;50.844;-0.132;2024-01-30T01:14:44;12.30;;;3.05;;
83862;SDS011;73888;50.844;-0.132;2024-01-30T01:17:12;10.40;;;2.30;;
83862;SDS011;73888;50.844;-0.132;2024-01-30T01:19:38;9.90;;;2.67;;
83862;SDS011;73888;50.844;-0.132;2024-01-30T01:22:04;7.68;;;2.22;;
83862;SDS011;73888;50.844;-0.132;2024-01-30T01:24:31;9.23;;;2.28;;
83862;SDS011;73888;50.844;-0.132;2024-01-30T01:27:02;13.15;;;2.60;;
83862;SDS011;73888;50.844;-0.132;2024-01-30T01:29:28;10.30;;;2.67;;
83862;SDS011;73888;50.844;-0.132;2024-01-30T01:31:57;9.55;;;2.40;;
83862;SDS011;73888;50.844;-0.132;2024-01-30T01:34:24;9.60;;;2.10;;
83862;SDS011;73888;50.844;-0.132;2024-01-30T01:36:51;11.50;;;2.47;;
83862;SDS011;73888;50.844;-0.132;2024-01-30T01:39:20;5.90;;;1.27;;
83862;SDS011;73888;50.844;-0.132;2024-01-30T01:41:46;10.60;;;1.83;;
83862;SDS011;73888;50.844;-0.132;2024-01-30T01:44:13;6.43;;;1.20;;
83862;SDS011;73888;50.844;-0.132;2024-01-30T01:46:42;11.27;;;2.22;;
83862;SDS011;73888;50.844;-0.132;2024-01-30T01:49:09;7.45;;;0.88;;
83862;SDS011;73888;50.844;-0.132;2024-01-30T01:51:40;7.13;;;1.92;;
83862;SDS011;73888;50.844;-0.132;2024-01-30T01:54:07;7.30;;;1.77;;
83862;SDS011;73888;50.844;-0.132;2024-01-30T01:56:33;7.47;;;1.30;;
83862;SDS011;73888;50.844;-0.132;2024-01-30T01:59:00;7.13;;;1.92;;
83862;SDS011;73888;50.844;-0.132;2024-01-30T02:01:30;8.70;;;1.20;;
83862;SDS011;73888;50.844;-0.132;2024-01-30T02:03:56;8.30;;;1.65;;
83862;SDS011;73888;50.844;-0.132;2024-01-30T02:06:22;7.27;;;1.50;;
83862;SDS011;73888;50.844;-0.132;2024-01-30T02:08:54;8.38;;;2.03;;
83862;SDS011;73888;50.844;-0.132;2024-01-30T02:11:20;9.77;;;1.20;;
83862;SDS011;73888;50.844;-0.132;2024-01-30T02:13:47;9.57;;;1.98;;
83862;SDS011;73888;50.844;-0.132;2024-01-30T02:16:14;4.20;;;0.87;;
83862;SDS011;73888;50.844;-0.132;2024-01-30T02:18:45;5.35;;;0.98;;
83862;SDS011;73888;50.844;-0.132;2024-01-30T02:21:15;6.07;;;1.35;;
83862;SDS011;73888;50.844;-0.132;2024-01-30T02:23:46;13.50;;;2.17;;
83862;SDS011;73888;50.844;-0.132;2024-01-30T02:26:12;4.25;;;1.42;;
83862;SDS011;73888;50.844;-0.132;2024-01-30T02:28:39;3.47;;;0.43;;
83862;SDS011;73888;50.844;-0.132;2024-01-30T02:31:09;5.07;;;0.98;;
83862;SDS011;73888;50.844;-0.132;2024-01-30T02:33:38;5.85;;;1.10;;
83862;SDS011;73888;50.844;-0.132;2024-01-30T02:36:09;3.60;;;0.65;;
83862;SDS011;73888;50.844;-0.132;2024-01-30T02:38:35;9.63;;;1.48;;
83862;SDS011;73888;50.844;-0.132;2024-01-30T02:41:01;7.33;;;1.07;;
83862;SDS011;73888;50.844;-0.132;2024-01-30T02:43:28;8.18;;;1.27;;
83862;SDS011;73888;50.844;-0.132;2024-01-30T02:45:59;7.28;;;1.25;;
83862;SDS011;73888;50.844;-0.132;2024-01-30T02:48:27;6.45;;;0.80;;
83862;SDS011;73888;50.844;-0.132;2024-01-30T02:50:54;5.83;;;0.90;;
83862;SDS011;73888;50.844;-0.132;2024-01-30T02:53:23;4.50;;;0.70;;
83862;SDS011;73888;50.844;-0.132;2024-01-30T02:55:50;7.78;;;1.27;;
83862;SDS011;73888;50.844;-0.132;2024-01-30T02:58:19;7.78;;;1.27;;
83862;SDS011;73888;50.844;-0.132;2024-01-30T03:00:49;5.43;;;1.10;;
83862;SDS011;73888;50.844;-0.132;2024-01-30T03:03:15;4.13;;;1.10;;
83862;SDS011;73888;50.844;-0.132;2024-01-30T03:05:41;5.60;;;0.85;;
83862;SDS011;73888;50.844;-0.132;2024-01-30T03:08:08;10.02;;;1.60;;
83862;SDS011;73888;50.844;-0.132;2024-01-30T03:10:34;6.20;;;0.73;;
83862;SDS011;73888;50.844;-0.132;2024-01-30T03:13:00;12.38;;;2.03;;
83862;SDS011;73888;50.844;-0.132;2024-01-30T03:15:26;7.87;;;1.27;;
83862;SDS011;73888;50.844;-0.132;2024-01-30T03:17:53;11.15;;;1.42;;
83862;SDS011;73888;50.844;-0.132;2024-01-30T03:20:21;5.68;;;1.25;;
83862;SDS011;73888;50.844;-0.132;2024-01-30T03:22:48;7.22;;;1.67;;
83862;SDS011;73888;50.844;-0.132;2024-01-30T03:25:17;6.40;;;1.30;;
83862;SDS011;73888;50.844;-0.132;2024-01-30T03:27:43;5.80;;;0.70;;
83862;SDS011;73888;50.844;-0.132;2024-01-30T03:30:10;4.10;;;1.05;;
83862;SDS011;73888;50.844;-0.132;2024-01-30T03:32:36;7.40;;;1.88;;
83862;SDS011;73888;50.844;-0.132;2024-01-30T03:35:03;5.13;;;0.73;;
83862;SDS011;73888;50.844;-0.132;2024-01-30T03:37:30;7.88;;;1.33;;
83862;SDS011;73888;50.844;-0.132;2024-01-30T03:39:57;4.10;;;1.20;;
83862;SDS011;73888;50.844;-0.132;2024-01-30T03:42:23;5.53;;;1.17;;
83862;SDS011;73888;50.844;-0.132;2024-01-30T03:44:49;6.32;;;1.33;;
83862;SDS011;73888;50.844;-0.132;2024-01-30T03:47:19;6.25;;;1.00;;
83862;SDS011;73888;50.844;-0.132;2024-01-30T03:49:45;3.65;;;1.08;;
83862;SDS011;73888;50.844;-0.132;2024-01-30T03:52:13;10.23;;;1.53;;
83862;SDS011;73888;50.844;-0.132;2024-01-30T03:54:39;6.45;;;1.33;;
83862;SDS011;73888;50.844;-0.132;2024-01-30T03:57:05;7.47;;;1.42;;
83862;SDS011;73888;50.844;-0.132;2024-01-30T03:59:33;5.95;;;1.08;;
83862;SDS011;73888;50.844;-0.132;2024-01-30T04:02:02;4.82;;;0.77;;
83862;SDS011;73888;50.844;-0.132;2024-01-30T04:04:29;5.33;;;0.77;;
83862;SDS011;73888;50.844;-0.132;2024-01-30T04:06:55;8.15;;;0.60;;
83862;SDS011;73888;50.844;-0.132;2024-01-30T04:09:21;5.45;;;1.27;;
83862;SDS011;73888;50.844;-0.132;2024-01-30T04:11:48;3.78;;;0.70;;
83862;SDS011;73888;50.844;-0.132;2024-01-30T04:14:15;4.13;;;1.07;;
83862;SDS011;73888;50.844;-0.132;2024-01-30T04:16:41;5.93;;;1.10;;
83862;SDS011;73888;50.844;-0.132;2024-01-30T04:19:07;5.85;;;1.23;;
83862;SDS011;73888;50.844;-0.132;2024-01-30T04:21:33;7.45;;;1.02;;
83862;SDS011;73888;50.844;-0.132;2024-01-30T04:23:59;4.57;;;0.80;;
83862;SDS011;73888;50.844;-0.132;2024-01-30T04:26:27;4.00;;;0.70;;
83862;SDS011;73888;50.844;-0.132;2024-01-30T04:28:55;3.42;;;1.20;;
83862;SDS011;73888;50.844;-0.132;2024-01-30T04:31:21;6.20;;;1.23;;
83862;SDS011;73888;50.844;-0.132;2024-01-30T04:33:48;5.13;;;1.15;;
83862;SDS011;73888;50.844;-0.132;2024-01-30T04:36:14;3.13;;;0.67;;
83862;SDS011;73888;50.844;-0.132;2024-01-30T04:38:43;7.30;;;1.13;;
83862;SDS011;73888;50.844;-0.132;2024-01-30T04:41:11;7.70;;;1.25;;
83862;SDS011;73888;50.844;-0.132;2024-01-30T04:43:38;7.57;;;1.23;;
83862;SDS011;73888;50.844;-0.132;2024-01-30T04:46:04;6.75;;;1.27;;
83862;SDS011;73888;50.844;-0.132;2024-01-30T04:48:33;8.73;;;1.97;;
83862;SDS011;73888;50.844;-0.132;2024-01-30T04:50:59;8.60;;;1.20;;
83862;SDS011;73888;50.844;-0.132;2024-01-30T04:53:29;2.60;;;0.88;;
83862;SDS011;73888;50.844;-0.132;2024-01-30T04:55:58;5.97;;;1.23;;
83862;SDS011;73888;50.844;-0.132;2024-01-30T04:58:27;4.57;;;1.42;;
83862;SDS011;73888;50.844;-0.132;2024-01-30T05:00:53;6.83;;;0.93;;
83862;SDS011;73888;50.844;-0.132;2024-01-30T05:03:22;7.97;;;1.25;;
83862;SDS011;73888;50.844;-0.132;2024-01-30T05:05:50;7.00;;;1.38;;
83862;SDS011;73888;50.844;-0.132;2024-01-30T05:08:19;7.07;;;1.50;;
83862;SDS011;73888;50.844;-0.132;2024-01-30T05:10:45;4.45;;;1.40;;
83862;SDS011;73888;50.844;-0.132;2024-01-30T05:13:13;6.07;;;0.97;;
83862;SDS011;73888;50.844;-0.132;2024-01-30T05:15:42;4.07;;;1.10;;
83862;SDS011;73888;50.844;-0.132;2024-01-30T05:18:08;5.70;;;1.13;;
83862;SDS011;73888;50.844;-0.132;2024-01-30T05:20:35;4.70;;;0.95;;
83862;SDS011;73888;50.844;-0.132;2024-01-30T05:23:04;5.97;;;1.65;;
83862;SDS011;73888;50.844;-0.132;2024-01-30T05:25:36;5.50;;;1.70;;
83862;SDS011;73888;50.844;-0.132;2024-01-30T05:28:02;6.68;;;0.95;;
83862;SDS011;73888;50.844;-0.132;2024-01-30T05:30:28;5.72;;;1.00;;
83862;SDS011;73888;50.844;-0.132;2024-01-30T05:32:58;4.15;;;0.60;;
83862;SDS011;73888;50.844;-0.132;2024-01-30T05:35:25;5.32;;;0.60;;
83862;SDS011;73888;50.844;-0.132;2024-01-30T05:37:51;5.17;;;1.00;;
83862;SDS011;73888;50.844;-0.132;2024-01-30T05:40:18;4.95;;;0.98;;
83862;SDS011;73888;50.844;-0.132;2024-01-30T05:42:45;4.88;;;0.80;;
83862;SDS011;73888;50.844;-0.132;2024-01-30T05:45:14;5.80;;;0.98;;
83862;SDS011;73888;50.844;-0.132;2024-01-30T05:47:43;3.67;;;1.45;;
83862;SDS011;73888;50.844;-0.132;2024-01-30T05:50:11;6.37;;;0.83;;
83862;SDS011;73888;50.844;-0.132;2024-01-30T05:52:37;3.90;;;1.15;;
83862;SDS011;73888;50.844;-0.132;2024-01-30T05:55:05;7.05;;;1.20;;
83862;SDS011;73888;50.844;-0.132;2024-01-30T05:57:34;7.10;;;1.20;;
83862;SDS011;73888;50.844;-0.132;2024-01-30T06:00:00;5.70;;;1.35;;
83862;SDS011;73888;50.844;-0.132;2024-01-30T06:02:28;5.30;;;0.87;;
83862;SDS011;73888;50.844;-0.132;2024-01-30T06:04:56;9.32;;;1.35;;
83862;SDS011;73888;50.844;-0.132;2024-01-30T06:07:26;7.43;;;1.65;;
83862;SDS011;73888;50.844;-0.132;2024-01-30T06:09:52;4.00;;;0.80;;
83862;SDS011;73888;50.844;-0.132;2024-01-30T06:12:20;7.47;;;1.45;;
83862;SDS011;73888;50.844;-0.132;2024-01-30T06:14:49;4.30;;;1.03;;
83862;SDS011;73888;50.844;-0.132;2024-01-30T06:17:18;5.90;;;1.48;;
83862;SDS011;73888;50.844;-0.132;2024-01-30T06:19:46;5.50;;;1.00;;
83862;SDS011;73888;50.844;-0.132;2024-01-30T06:22:12;6.97;;;1.58;;
83862;SDS011;73888;50.844;-0.132;2024-01-30T06:24:40;4.53;;;1.00;;
83862;SDS011;73888;50.844;-0.132;2024-01-30T06:27:06;7.47;;;1.53;;
83862;SDS011;73888;50.844;-0.132;2024-01-30T06:29:31;9.65;;;2.25;;
83862;SDS011;73888;50.844;-0.132;2024-01-30T06:31:57;3.22;;;1.38;;
83862;SDS011;73888;50.844;-0.132;2024-01-30T06:34:23;8.27;;;1.50;;
83862;SDS011;73888;50.844;-0.132;2024-01-30T06:36:52;3.63;;;0.82;;
83862;SDS011;73888;50.844;-0.132;2024-01-30T06:39:21;6.30;;;0.98;;
83862;SDS011;73888;50.844;-0.132;2024-01-30T06:41:50;5.45;;;0.85;;
83862;SDS011;73888;50.844;-0.132;2024-01-30T06:44:17;5.35;;;0.85;;
83862;SDS011;73888;50.844;-0.132;2024-01-30T06:46:43;4.27;;;0.77;;
83862;SDS011;73888;50.844;-0.132;2024-01-30T06:49:10;3.45;;;0.75;;
83862;SDS011;73888;50.844;-0.132;2024-01-30T06:51:36;3.53;;;0.73;;
83862;SDS011;73888;50.844;-0.132;2024-01-30T06:54:05;5.80;;;1.48;;
83862;SDS011;73888;50.844;-0.132;2024-01-30T06:56:31;4.45;;;1.17;;
83862;SDS011;73888;50.844;-0.132;2024-01-30T06:58:58;6.67;;;1.60;;
83862;SDS011;73888;50.844;-0.132;2024-01-30T07:01:28;4.20;;;1.48;;
83862;SDS011;73888;50.844;-0.132;2024-01-30T07:03:54;3.97;;;1.27;;
83862;SDS011;73888;50.844;-0.132;2024-01-30T07:06:21;6.70;;;1.65;;
83862;SDS011;73888;50.844;-0.132;2024-01-30T07:08:50;2.67;;;0.93;;
83862;SDS011;73888;50.844;-0.132;2024-01-30T07:11:21;3.83;;;0.93;;
83862;SDS011;73888;50.844;-0.132;2024-01-30T07:13:48;3.78;;;1.10;;
83862;SDS011;73888;50.844;-0.132;2024-01-30T07:16:14;5.22;;;1.90;;
83862;SDS011;73888;50.844;-0.132;2024-01-30T07:18:43;4.15;;;1.55;;
83862;SDS011;73888;50.844;-0.132;2024-01-30T07:21:09;5.05;;;1.17;;
83862;SDS011;73888;50.844;-0.132;2024-01-30T07:23:36;6.05;;;1.23;;
83862;SDS011;73888;50.844;-0.132;2024-01-30T07:26:04;3.70;;;0.40;;
83862;SDS011;73888;50.844;-0.132;2024-01-30T07:28:36;3.13;;;0.90;;
83862;SDS011;73888;50.844;-0.132;2024-01-30T07:31:03;3.28;;;0.90;;
83862;SDS011;73888;50.844;-0.132;2024-01-30T07:33:31;3.67;;;1.73;;
83862;SDS011;73888;50.844;-0.132;2024-01-30T07:35:57;2.63;;;0.97;;
83862;SDS011;73888;50.844;-0.132;2024-01-30T07:38:23;1.33;;;0.40;;
83862;SDS011;73888;50.844;-0.132;2024-01-30T07:40:49;3.33;;;1.00;;
83862;SDS011;73888;50.844;-0.132;2024-01-30T07:43:15;3.80;;;0.70;;
83862;SDS011;73888;50.844;-0.132;2024-01-30T07:45:41;4.87;;;0.57;;
83862;SDS011;73888;50.844;-0.132;2024-01-30T07:48:08;2.03;;;0.57;;
83862;SDS011;73888;50.844;-0.132;2024-01-30T07:50:34;2.45;;;0.57;;
83862;SDS011;73888;50.844;-0.132;2024-01-30T07:53:06;6.28;;;1.42;;
83862;SDS011;73888;50.844;-0.132;2024-01-30T07:55:35;2.35;;;0.80;;
83862;SDS011;73888;50.844;-0.132;2024-01-30T07:58:01;1.40;;;0.57;;
83862;SDS011;73888;50.844;-0.132;2024-01-30T08:00:28;4.03;;;0.98;;
83862;SDS011;73888;50.844;-0.132;2024-01-30T08:02:56;3.13;;;1.65;;
83862;SDS011;73888;50.844;-0.132;2024-01-30T08:05:26;1.60;;;0.75;;
83862;SDS011;73888;50.844;-0.132;2024-01-30T08:07:52;2.50;;;0.80;;
83862;SDS011;73888;50.844;-0.132;2024-01-30T08:10:18;2.07;;;0.40;;
83862;SDS011;73888;50.844;-0.132;2024-01-30T08:12:47;3.20;;;0.85;;
83862;SDS011;73888;50.844;-0.132;2024-01-30T08:15:14;3.65;;;0.95;;
83862;SDS011;73888;50.844;-0.132;2024-01-30T08:17:42;3.45;;;0.82;;
83862;SDS011;73888;50.844;-0.132;2024-01-30T08:20:10;2.03;;;0.70;;
83862;SDS011;73888;50.844;-0.132;2024-01-30T08:22:38;3.13;;;1.07;;
83862;SDS011;73888;50.844;-0.132;2024-01-30T08:25:07;3.30;;;1.20;;
83862;SDS011;73888;50.844;-0.132;2024-01-30T08:27:34;2.13;;;1.05;;
83862;SDS011;73888;50.844;-0.132;2024-01-30T08:30:08;2.40;;;1.08;;
83862;SDS011;73888;50.844;-0.132;2024-01-30T08:32:36;3.35;;;1.50;;
83862;SDS011;73888;50.844;-0.132;2024-01-30T08:35:02;3.43;;;1.00;;
83862;SDS011;73888;50.844;-0.132;2024-01-30T08:37:28;2.80;;;1.35;;
83862;SDS011;73888;50.844;-0.132;2024-01-30T08:39:55;4.55;;;1.92;;
83862;SDS011;73888;50.844;-0.132;2024-01-30T08:42:21;4.07;;;1.38;;
83862;SDS011;73888;50.844;-0.132;2024-01-30T08:44:48;4.32;;;1.65;;
83862;SDS011;73888;50.844;-0.132;2024-01-30T08:47:16;3.27;;;1.57;;
83862;SDS011;73888;50.844;-0.132;2024-01-30T08:49:46;7.38;;;1.88;;
83862;SDS011;73888;50.844;-0.132;2024-01-30T08:52:12;4.32;;;1.20;;
83862;SDS011;73888;50.844;-0.132;2024-01-30T08:54:38;4.57;;;1.77;;
83862;SDS011;73888;50.844;-0.132;2024-01-30T08:57:05;3.50;;;2.00;;
83862;SDS011;73888;50.844;-0.132;2024-01-30T08:59:31;3.73;;;1.23;;
83862;SDS011;73888;50.844;-0.132;2024-01-30T09:01:58;4.22;;;2.08;;
83862;SDS011;73888;50.844;-0.132;2024-01-30T09:04:24;6.20;;;1.90;;
83862;SDS011;73888;50.844;-0.132;2024-01-30T09:06:50;5.20;;;1.58;;
83862;SDS011;73888;50.844;-0.132;2024-01-30T09:09:19;3.42;;;1.67;;
83862;SDS011;73888;50.844;-0.132;2024-01-30T09:11:47;3.53;;;1.60;;
83862;SDS011;73888;50.844;-0.132;2024-01-30T09:14:12;5.22;;;1.60;;
83862;SDS011;73888;50.844;-0.132;2024-01-30T09:16:40;4.18;;;1.50;;
83862;SDS011;73888;50.844;-0.132;2024-01-30T09:19:07;3.47;;;1.25;;
83862;SDS011;73888;50.844;-0.132;2024-01-30T09:21:33;3.35;;;1.17;;
83862;SDS011;73888;50.844;-0.132;2024-01-30T09:24:03;5.50;;;2.17;;
83862;SDS011;73888;50.844;-0.132;2024-01-30T09:26:29;4.05;;;1.92;;
83862;SDS011;73888;50.844;-0.132;2024-01-30T09:28:57;4.90;;;1.50;;
83862;SDS011;73888;50.844;-0.132;2024-01-30T09:31:23;4.10;;;1.25;;
83862;SDS011;73888;50.844;-0.132;2024-01-30T09:33:49;3.63;;;1.35;;
83862;SDS011;73888;50.844;-0.132;2024-01-30T09:36:17;5.40;;;1.80;;
83862;SDS011;73888;50.844;-0.132;2024-01-30T09:38:44;3.13;;;1.08;;
83862;SDS011;73888;50.844;-0.132;2024-01-30T09:41:10;3.97;;;1.33;;
83862;SDS011;73888;50.844;-0.132;2024-01-30T09:43:39;2.53;;;0.80;;
83862;SDS011;73888;50.844;-0.132;2024-01-30T09:46:05;4.97;;;1.13;;
83862;SDS011;73888;50.844;-0.132;2024-01-30T09:48:35;2.97;;;0.90;;
83862;SDS011;73888;50.844;-0.132;2024-01-30T09:51:02;4.53;;;1.27;;
83862;SDS011;73888;50.844;-0.132;2024-01-30T09:53:28;4.93;;;1.58;;
83862;SDS011;73888;50.844;-0.132;2024-01-30T09:55:54;4.00;;;1.83;;
83862;SDS011;73888;50.844;-0.132;2024-01-30T09:58:20;3.20;;;1.23;;
83862;SDS011;73888;50.844;-0.132;2024-01-30T10:00:48;3.95;;;1.13;;
83862;SDS011;73888;50.844;-0.132;2024-01-30T10:03:17;3.42;;;1.27;;
83862;SDS011;73888;50.844;-0.132;2024-01-30T10:05:44;5.45;;;1.80;;
83862;SDS011;73888;50.844;-0.132;2024-01-30T10:08:13;3.92;;;1.67;;
83862;SDS011;73888;50.844;-0.132;2024-01-30T10:10:45;5.05;;;1.60;;
83862;SDS011;73888;50.844;-0.132;2024-01-30T10:13:11;3.25;;;0.90;;
83862;SDS011;73888;50.844;-0.132;2024-01-30T10:15:37;3.17;;;1.48;;
83862;SDS011;73888;50.844;-0.132;2024-01-30T10:18:05;5.10;;;1.33;;
83862;SDS011;73888;50.844;-0.132;2024-01-30T10:20:31;3.15;;;0.93;;
83862;SDS011;73888;50.844;-0.132;2024-01-30T10:22:57;1.80;;;0.40;;
83862;SDS011;73888;50.844;-0.132;2024-01-30T10:25:24;5.10;;;0.77;;
83862;SDS011;73888;50.844;-0.132;2024-01-30T10:27:55;2.22;;;1.10;;
83862;SDS011;73888;50.844;-0.132;2024-01-30T10:30:22;5.07;;;1.48;;
83862;SDS011;73888;50.844;-0.132;2024-01-30T10:32:48;5.97;;;1.27;;
83862;SDS011;73888;50.844;-0.132;2024-01-30T10:35:14;3.63;;;0.90;;
83862;SDS011;73888;50.844;-0.132;2024-01-30T10:37:43;6.18;;;1.10;;
83862;SDS011;73888;50.844;-0.132;2024-01-30T10:40:09;9.32;;;2.15;;
83862;SDS011;73888;50.844;-0.132;2024-01-30T10:42:38;4.07;;;1.30;;
83862;SDS011;73888;50.844;-0.132;2024-01-30T10:45:11;5.85;;;1.58;;
83862;SDS011;73888;50.844;-0.132;2024-01-30T10:47:37;4.30;;;1.20;;
83862;SDS011;73888;50.844;-0.132;2024-01-30T10:50:07;7.50;;;1.85;;
83862;SDS011;73888;50.844;-0.132;2024-01-30T10:52:34;3.28;;;0.98;;
83862;SDS011;73888;50.844;-0.132;2024-01-30T10:55:01;4.38;;;1.10;;
83862;SDS011;73888;50.844;-0.132;2024-01-30T10:57:31;3.40;;;1.00;;
83862;SDS011;73888;50.844;-0.132;2024-01-30T11:00:00;2.93;;;1.30;;
83862;SDS011;73888;50.844;-0.132;2024-01-30T11:02:30;5.13;;;1.25;;
83862;SDS011;73888;50.844;-0.132;2024-01-30T11:04:59;4.63;;;1.73;;
83862;SDS011;73888;50.844;-0.132;2024-01-30T11:07:26;5.22;;;0.95;;
83862;SDS011;73888;50.844;-0.132;2024-01-30T11:12:28;3.50;;;1.47;;
83862;SDS011;73888;50.844;-0.132;2024-01-30T11:15:28;2.65;;;1.20;;
83862;SDS011;73888;50.844;-0.132;2024-01-30T11:20:29;5.25;;;1.40;;
83862;SDS011;73888;50.844;-0.132;2024-01-30T11:23:00;3.60;;;0.80;;
83862;SDS011;73888;50.844;-0.132;2024-01-30T11:25:31;2.13;;;0.73;;
83862;SDS011;73888;50.844;-0.132;2024-01-30T11:27:57;3.22;;;0.70;;
83862;SDS011;73888;50.844;-0.132;2024-01-30T11:30:27;6.47;;;1.75;;
83862;SDS011;73888;50.844;-0.132;2024-01-30T11:35:43;5.22;;;1.38;;
83862;SDS011;73888;50.844;-0.132;2024-01-30T11:38:10;3.80;;;1.13;;
83862;SDS011;73888;50.844;-0.132;2024-01-30T11:40:40;6.78;;;1.52;;
83862;SDS011;73888;50.844;-0.132;2024-01-30T11:43:08;3.63;;;1.98;;
83862;SDS011;73888;50.844;-0.132;2024-01-30T11:45:37;6.25;;;1.77;;
83862;SDS011;73888;50.844;-0.132;2024-01-30T11:48:08;4.30;;;1.55;;
83862;SDS011;73888;50.844;-0.132;2024-01-30T11:50:35;3.37;;;1.13;;
83862;SDS011;73888;50.844;-0.132;2024-01-30T11:53:04;4.20;;;1.63;;
83862;SDS011;73888;50.844;-0.132;2024-01-30T11:55:30;5.50;;;1.17;;
83862;SDS011;73888;50.844;-0.132;2024-01-30T11:57:58;4.15;;;1.40;;
83862;SDS011;73888;50.844;-0.132;2024-01-30T12:00:24;4.38;;;1.10;;
83862;SDS011;73888;50.844;-0.132;2024-01-30T12:02:51;3.17;;;0.80;;
83862;SDS011;73888;50.844;-0.132;2024-01-30T12:05:22;2.85;;;0.70;;
83862;SDS011;73888;50.844;-0.132;2024-01-30T12:07:48;4.50;;;1.95;;
83862;SDS011;73888;50.844;-0.132;2024-01-30T12:10:14;3.75;;;0.93;;
83862;SDS011;73888;50.844;-0.132;2024-01-30T12:12:49;3.83;;;1.38;;
83862;SDS011;73888;50.844;-0.132;2024-01-30T12:15:16;5.70;;;1.40;;
83862;SDS011;73888;50.844;-0.132;2024-01-30T12:17:44;5.57;;;1.30;;
83862;SDS011;73888;50.844;-0.132;2024-01-30T12:20:10;8.93;;;2.13;;
83862;SDS011;73888;50.844;-0.132;2024-01-30T12:22:37;5.07;;;1.20;;
83862;SDS011;73888;50.844;-0.132;2024-01-30T12:25:05;4.13;;;0.93;;
83862;SDS011;73888;50.844;-0.132;2024-01-30T12:27:33;3.07;;;0.90;;
83862;SDS011;73888;50.844;-0.132;2024-01-30T12:29:59;4.38;;;1.20;;
83862;SDS011;73888;50.844;-0.132;2024-01-30T12:32:25;3.33;;;1.42;;
83862;SDS011;73888;50.844;-0.132;2024-01-30T12:34:55;4.28;;;1.02;;
83862;SDS011;73888;50.844;-0.132;2024-01-30T12:37:22;4.40;;;0.95;;
83862;SDS011;73888;50.844;-0.132;2024-01-30T12:39:51;2.40;;;0.90;;
83862;SDS011;73888;50.844;-0.132;2024-01-30T12:42:21;5.65;;;1.08;;
83862;SDS011;73888;50.844;-0.132;2024-01-30T12:44:48;3.53;;;1.30;;
83862;SDS011;73888;50.844;-0.132;2024-01-30T12:47:14;3.95;;;1.00;;
83862;SDS011;73888;50.844;-0.132;2024-01-30T12:49:42;3.92;;;1.33;;
83862;SDS011;73888;50.844;-0.132;2024-01-30T12:52:10;3.77;;;1.20;;
83862;SDS011;73888;50.844;-0.132;2024-01-30T12:54:37;3.50;;;0.80;;
83862;SDS011;73888;50.844;-0.132;2024-01-30T12:57:04;4.45;;;1.35;;
83862;SDS011;73888;50.844;-0.132;2024-01-30T12:59:33;3.80;;;0.93;;
83862;SDS011;73888;50.844;-0.132;2024-01-30T13:02:00;4.72;;;1.20;;
83862;SDS011;73888;50.844;-0.132;2024-01-30T13:04:27;3.33;;;0.63;;
83862;SDS011;73888;50.844;-0.132;2024-01-30T13:06:53;3.72;;;1.08;;
83862;SDS011;73888;50.844;-0.132;2024-01-30T13:09:19;6.65;;;1.77;;
83862;SDS011;73888;50.844;-0.132;2024-01-30T13:11:46;3.42;;;1.13;;
83862;SDS011;73888;50.844;-0.132;2024-01-30T13:14:19;7.73;;;2.03;;
83862;SDS011;73888;50.844;-0.132;2024-01-30T13:16:50;5.65;;;1.73;;
83862;SDS011;73888;50.844;-0.132;2024-01-30T13:19:16;3.45;;;1.25;;
83862;SDS011;73888;50.844;-0.132;2024-01-30T13:21:44;5.00;;;1.35;;
83862;SDS011;73888;50.844;-0.132;2024-01-30T13:24:10;4.40;;;1.23;;
83862;SDS011;73888;50.844;-0.132;2024-01-30T13:26:39;4.07;;;1.52;;
83862;SDS011;73888;50.844;-0.132;2024-01-30T13:29:11;6.65;;;1.75;;
83862;SDS011;73888;50.844;-0.132;2024-01-30T13:31:37;6.78;;;1.63;;
83862;SDS011;73888;50.844;-0.132;2024-01-30T13:34:04;4.50;;;1.63;;
83862;SDS011;73888;50.844;-0.132;2024-01-30T13:36:31;3.57;;;0.97;;
83862;SDS011;73888;50.844;-0.132;2024-01-30T13:39:00;3.67;;;1.10;;
83862;SDS011;73888;50.844;-0.132;2024-01-30T13:41:28;2.85;;;1.30;;
83862;SDS011;73888;50.844;-0.132;2024-01-30T13:43:55;4.05;;;0.95;;
83862;SDS011;73888;50.844;-0.132;2024-01-30T13:46:21;3.25;;;1.55;;
83862;SDS011;73888;50.844;-0.132;2024-01-30T13:48:47;2.03;;;0.60;;
83862;SDS011;73888;50.844;-0.132;2024-01-30T13:51:13;2.40;;;1.08;;
83862;SDS011;73888;50.844;-0.132;2024-01-30T13:53:39;5.15;;;1.67;;
83862;SDS011;73888;50.844;-0.132;2024-01-30T13:56:05;2.75;;;1.00;;
83862;SDS011;73888;50.844;-0.132;2024-01-30T13:58:33;3.10;;;1.50;;
83862;SDS011;73888;50.844;-0.132;2024-01-30T14:01:02;3.03;;;1.00;;
83862;SDS011;73888;50.844;-0.132;2024-01-30T14:03:29;2.75;;;1.05;;
83862;SDS011;73888;50.844;-0.132;2024-01-30T14:05:58;3.92;;;1.50;;
83862;SDS011;73888;50.844;-0.132;2024-01-30T14:08:24;2.05;;;1.15;;
83862;SDS011;73888;50.844;-0.132;2024-01-30T14:10:52;2.78;;;0.85;;
83862;SDS011;73888;50.844;-0.132;2024-01-30T14:13:18;2.77;;;1.30;;
83862;SDS011;73888;50.844;-0.132;2024-01-30T14:15:45;7.03;;;1.60;;
83862;SDS011;73888;50.844;-0.132;2024-01-30T14:18:12;4.95;;;1.70;;
83862;SDS011;73888;50.844;-0.132;2024-01-30T14:20:41;4.15;;;1.00;;
83862;SDS011;73888;50.844;-0.132;2024-01-30T14:23:07;4.80;;;1.40;;
83862;SDS011;73888;50.844;-0.132;2024-01-30T14:25:33;3.47;;;0.90;;
83862;SDS011;73888;50.844;-0.132;2024-01-30T14:28:00;3.15;;;1.42;;
83862;SDS011;73888;50.844;-0.132;2024-01-30T14:30:26;3.50;;;1.00;;
83862;SDS011;73888;50.844;-0.132;2024-01-30T14:32:54;2.83;;;1.35;;
83862;SDS011;73888;50.844;-0.132;2024-01-30T14:35:21;2.80;;;0.80;;
83862;SDS011;73888;50.844;-0.132;2024-01-30T14:37:47;2.88;;;0.93;;
83862;SDS011;73888;50.844;-0.132;2024-01-30T14:40:13;3.05;;;1.20;;
83862;SDS011;73888;50.844;-0.132;2024-01-30T14:42:41;7.07;;;1.10;;